createdAt,value
2022-12-22T00:00:54.684Z,51.00
2022-12-22T00:03:15.666Z,52.83
2022-12-22T00:05:40.805Z,58.00
2022-12-22T00:08:04.977Z,53.80
2022-12-22T00:10:26.056Z,53.83
2022-12-22T00:12:46.605Z,60.07
2022-12-22T00:15:08.049Z,56.90
2022-12-22T00:17:45.669Z,60.17
2022-12-22T00:20:12.234Z,52.43
2022-12-22T00:22:41.845Z,56.13
2022-12-22T00:25:02.311Z,55.07
2022-12-22T00:27:23.194Z,53.20
2022-12-22T00:29:46.365Z,53.90
2022-12-22T00:32:07.170Z,50.60
2022-12-22T00:34:41.390Z,52.80
2022-12-22T00:37:02.816Z,51.47
2022-12-22T00:39:31.577Z,49.93
2022-12-22T00:41:52.370Z,47.73
2022-12-22T00:44:13.215Z,44.80
2022-12-22T00:46:37.292Z,41.63
2022-12-22T00:49:00.030Z,42.83
2022-12-22T00:51:20.827Z,40.67
2022-12-22T00:53:41.567Z,43.20
2022-12-22T00:56:01.953Z,45.70
2022-12-22T00:58:25.891Z,43.73
2022-12-22T01:00:47.231Z,46.30
2022-12-22T01:03:07.801Z,39.80
2022-12-22T01:05:28.456Z,40.23
2022-12-22T01:07:49.064Z,32.17
2022-12-22T01:10:11.893Z,32.80
2022-12-22T01:12:42.259Z,35.97
2022-12-22T01:15:02.882Z,30.73
2022-12-22T01:17:25.350Z,35.37
2022-12-22T01:19:45.844Z,29.53
2022-12-22T01:22:06.287Z,32.47
2022-12-22T01:24:32.162Z,32.27
2022-12-22T01:26:53.027Z,29.97
2022-12-22T01:29:13.735Z,29.83
2022-12-22T01:31:48.855Z,34.30
2022-12-22T01:34:09.482Z,33.13
2022-12-22T01:36:30.060Z,30.83
2022-12-22T01:38:50.882Z,32.37
2022-12-22T01:41:12.780Z,31.03
2022-12-22T01:43:54.450Z,32.00
2022-12-22T01:46:15.402Z,31.53
2022-12-22T01:48:49.471Z,32.13
2022-12-22T01:51:10.179Z,52.77
2022-12-22T01:53:36.347Z,59.03
2022-12-22T01:55:57.346Z,83.07
2022-12-22T01:58:18.139Z,109.93
2022-12-22T02:00:38.741Z,88.60
2022-12-22T02:02:59.661Z,82.67
2022-12-22T02:05:23.234Z,74.50
2022-12-22T02:07:46.476Z,73.57
2022-12-22T02:10:32.527Z,75.00
2022-12-22T02:13:12.408Z,51.40
2022-12-22T02:15:41.439Z,40.43
2022-12-22T02:18:26.884Z,115.30
2022-12-22T02:21:11.649Z,159.40
2022-12-22T02:24:05.655Z,135.67
2022-12-22T02:26:38.324Z,92.30
2022-12-22T02:28:58.731Z,86.93
2022-12-22T02:31:19.516Z,57.30
2022-12-22T02:33:41.108Z,58.53
2022-12-22T02:36:22.104Z,57.33
2022-12-22T02:39:12.992Z,86.73
2022-12-22T02:41:47.327Z,241.93
2022-12-22T02:44:33.116Z,157.70
2022-12-22T02:46:59.449Z,110.23
2022-12-22T02:49:44.226Z,91.87
2022-12-22T02:52:12.079Z,89.27
2022-12-22T02:54:35.253Z,86.23
2022-12-22T02:56:57.105Z,66.47
2022-12-22T02:59:17.672Z,50.83
2022-12-22T03:01:39.146Z,50.07
2022-12-22T03:03:59.923Z,51.00
2022-12-22T03:06:20.515Z,54.90
2022-12-22T03:08:44.348Z,51.70
2022-12-22T03:11:05.509Z,57.57
2022-12-22T03:13:26.670Z,55.27
2022-12-22T03:15:47.353Z,44.37
2022-12-22T03:18:10.622Z,49.00
2022-12-22T03:20:31.062Z,48.07
2022-12-22T03:22:51.708Z,44.40
2022-12-22T03:25:12.655Z,41.87
2022-12-22T03:27:14.936Z,41.37
2022-12-22T03:29:19.488Z,44.77
2022-12-22T03:31:24.314Z,43.30
2022-12-22T03:33:29.623Z,41.90
2022-12-22T03:35:31.777Z,40.20
2022-12-22T03:37:33.939Z,40.10
2022-12-22T03:39:38.585Z,44.50
2022-12-22T03:41:58.893Z,39.20
2022-12-22T03:44:19.779Z,40.63
2022-12-22T03:46:30.957Z,45.30
2022-12-22T03:48:33.278Z,42.50
2022-12-22T03:50:35.612Z,65.33
2022-12-22T03:52:37.950Z,52.47
2022-12-22T03:54:40.189Z,45.57
2022-12-22T03:56:42.722Z,47.17
2022-12-22T03:58:44.947Z,51.07
2022-12-22T04:00:47.401Z,49.03
2022-12-22T04:02:49.850Z,45.57
2022-12-22T04:04:54.549Z,44.07
2022-12-22T04:06:57.121Z,47.80
2022-12-22T04:08:59.146Z,47.37
2022-12-22T04:11:19.750Z,52.60
2022-12-22T04:13:21.858Z,101.17
2022-12-22T04:15:30.110Z,108.83
2022-12-22T04:17:32.194Z,76.47
2022-12-22T04:19:34.439Z,82.47
2022-12-22T04:21:37.683Z,78.80
2022-12-22T04:23:39.850Z,72.83
2022-12-22T04:25:42.007Z,74.57
2022-12-22T04:27:44.400Z,66.67
2022-12-22T04:29:46.711Z,70.30
2022-12-22T04:31:48.863Z,71.43
2022-12-22T04:33:50.984Z,65.13
2022-12-22T04:35:53.088Z,63.53
2022-12-22T04:37:55.126Z,62.37
2022-12-22T04:39:58.020Z,66.43
2022-12-22T04:42:00.367Z,65.33
2022-12-22T04:44:02.805Z,114.70
2022-12-22T04:46:08.632Z,122.77
2022-12-22T04:48:11.027Z,120.27
2022-12-22T04:50:13.191Z,211.20
2022-12-22T04:52:15.653Z,204.27
2022-12-22T04:54:17.866Z,228.23
2022-12-22T04:56:22.775Z,229.10
2022-12-22T04:58:25.111Z,169.77
2022-12-22T05:00:27.605Z,151.00
2022-12-22T05:02:29.831Z,104.83
2022-12-22T05:04:32.588Z,72.67
2022-12-22T05:06:34.825Z,57.50
2022-12-22T05:08:37.349Z,49.97
2022-12-22T05:10:40.454Z,46.03
2022-12-22T05:12:57.698Z,44.90
2022-12-22T05:14:59.888Z,48.27
2022-12-22T05:17:02.295Z,47.40
2022-12-22T05:19:04.622Z,41.47
2022-12-22T05:21:10.142Z,40.13
2022-12-22T05:23:12.871Z,43.57
2022-12-22T05:25:20.267Z,45.20
2022-12-22T05:27:22.427Z,40.77
2022-12-22T05:29:24.780Z,37.27
2022-12-22T05:31:28.125Z,35.77
2022-12-22T05:33:30.490Z,38.90
2022-12-22T05:35:32.630Z,37.73
2022-12-22T05:37:35.537Z,38.80
2022-12-22T05:39:38.128Z,35.17
2022-12-22T05:41:40.236Z,36.90
2022-12-22T05:43:42.291Z,39.70
2022-12-22T05:45:45.792Z,36.47
2022-12-22T05:47:50.790Z,36.30
2022-12-22T05:49:53.038Z,31.93
2022-12-22T05:51:57.720Z,34.97
2022-12-22T05:54:00.141Z,34.87
2022-12-22T05:56:02.432Z,31.80
2022-12-22T05:58:04.643Z,30.67
2022-12-22T06:00:08.971Z,35.63
2022-12-22T06:02:17.621Z,37.47
2022-12-22T06:04:20.003Z,37.97
2022-12-22T06:06:22.436Z,42.03
2022-12-22T06:08:25.345Z,43.27
2022-12-22T06:10:27.815Z,43.73
2022-12-22T06:12:30.197Z,42.67
2022-12-22T06:14:32.379Z,46.03
2022-12-22T06:16:34.490Z,42.17
2022-12-22T06:18:37.301Z,52.33
2022-12-22T06:20:39.603Z,47.13
2022-12-22T06:22:47.669Z,46.27
2022-12-22T06:24:50.210Z,42.10
2022-12-22T06:26:52.573Z,40.87
2022-12-22T06:28:54.606Z,41.40
2022-12-22T06:30:56.801Z,39.00
2022-12-22T06:33:00.443Z,45.00
2022-12-22T06:35:03.022Z,44.53
2022-12-22T06:37:05.359Z,40.13
2022-12-22T06:39:10.459Z,42.37
2022-12-22T06:41:12.389Z,42.03
2022-12-22T06:43:14.560Z,44.00
2022-12-22T06:45:16.767Z,43.77
2022-12-22T06:47:19.014Z,39.63
2022-12-22T06:49:21.270Z,43.57
2022-12-22T06:51:23.615Z,42.07
2022-12-22T06:53:26.572Z,45.03
2022-12-22T06:55:31.919Z,50.63
2022-12-22T06:57:33.986Z,49.90
2022-12-22T06:59:36.074Z,51.03
2022-12-22T07:01:42.935Z,50.60
2022-12-22T07:03:45.624Z,49.40
2022-12-22T07:05:48.441Z,62.57
2022-12-22T07:07:51.014Z,77.10
2022-12-22T07:09:53.108Z,73.90
2022-12-22T07:11:55.770Z,72.90
2022-12-22T07:13:58.485Z,65.43
2022-12-22T07:16:02.848Z,61.67
2022-12-22T07:18:05.377Z,54.07
2022-12-22T07:20:08.599Z,52.23
2022-12-22T07:22:10.677Z,60.27
2022-12-22T07:24:12.820Z,62.13
2022-12-22T07:26:15.528Z,57.93
2022-12-22T07:28:20.983Z,64.43
2022-12-22T07:30:23.615Z,61.87
2022-12-22T07:32:25.840Z,60.43
2022-12-22T07:34:28.237Z,65.10
2022-12-22T07:36:30.794Z,60.73
2022-12-22T07:38:38.660Z,60.63
2022-12-22T07:40:42.404Z,66.77
2022-12-22T07:42:45.392Z,66.50
2022-12-22T07:44:47.794Z,70.20
2022-12-22T07:46:50.469Z,79.30
2022-12-22T07:49:11.976Z,86.87
2022-12-22T07:51:14.084Z,89.40
2022-12-22T07:53:16.383Z,77.80
2022-12-22T07:55:19.286Z,78.67
2022-12-22T07:57:26.406Z,76.23
2022-12-22T07:59:28.899Z,74.13
2022-12-22T08:01:31.603Z,81.17
2022-12-22T08:03:33.865Z,73.00
2022-12-22T08:05:41.850Z,70.43
2022-12-22T08:07:51.773Z,75.80
2022-12-22T08:09:54.129Z,79.40
2022-12-22T08:11:56.354Z,77.40
2022-12-22T08:14:01.524Z,72.53
2022-12-22T08:16:09.691Z,75.93
2022-12-22T08:18:11.954Z,85.00
2022-12-22T08:20:14.172Z,79.50
2022-12-22T08:22:21.153Z,79.70
2022-12-22T08:24:26.353Z,77.80
2022-12-22T08:26:35.043Z,83.47
2022-12-22T08:28:45.417Z,89.43
2022-12-22T08:30:49.024Z,76.70
2022-12-22T08:32:51.884Z,83.20
2022-12-22T08:34:54.420Z,77.40
2022-12-22T08:37:00.410Z,76.13
2022-12-22T08:39:02.523Z,80.70
2022-12-22T08:41:04.786Z,74.10
2022-12-22T08:43:09.615Z,76.77
2022-12-22T08:45:11.804Z,81.27
2022-12-22T08:47:17.193Z,83.50
2022-12-22T08:49:20.234Z,76.33
2022-12-22T08:51:22.417Z,77.73
2022-12-22T08:54:02.347Z,71.07
2022-12-22T08:55:56.903Z,77.80
2022-12-22T08:57:59.355Z,87.03
2022-12-22T09:00:06.696Z,87.33
2022-12-22T09:02:09.355Z,85.37
2022-12-22T09:04:16.899Z,81.90
2022-12-22T09:06:27.278Z,82.00
2022-12-22T09:08:30.218Z,80.17
2022-12-22T09:10:32.691Z,78.03
2022-12-22T09:12:35.355Z,76.33
2022-12-22T09:14:38.059Z,76.63
2022-12-22T09:16:40.972Z,71.30
2022-12-22T09:18:43.167Z,73.77
2022-12-22T09:20:45.719Z,70.30
2022-12-22T09:22:47.980Z,71.90
2022-12-22T09:24:50.482Z,71.50
2022-12-22T09:26:52.653Z,75.33
2022-12-22T09:28:55.537Z,71.57
2022-12-22T09:30:57.598Z,70.60
2022-12-22T09:33:00.136Z,68.70
2022-12-22T09:35:02.202Z,61.97
2022-12-22T09:37:06.578Z,65.70
2022-12-22T09:39:10.121Z,61.90
2022-12-22T09:41:34.990Z,61.17
2022-12-22T09:43:37.894Z,61.47
2022-12-22T09:45:40.618Z,60.80
2022-12-22T09:47:42.893Z,60.80
2022-12-22T09:49:45.653Z,59.97
2022-12-22T09:51:54.530Z,61.40
2022-12-22T09:54:01.480Z,60.33
2022-12-22T09:56:04.060Z,64.87
2022-12-22T09:58:20.667Z,69.00
2022-12-22T10:00:27.826Z,60.40
2022-12-22T10:02:44.222Z,64.43
2022-12-22T10:05:20.974Z,65.70
2022-12-22T10:07:29.983Z,66.83
2022-12-22T10:09:50.686Z,69.30
2022-12-22T10:11:56.915Z,65.80
2022-12-22T10:13:59.360Z,68.90
2022-12-22T10:16:01.516Z,60.77
2022-12-22T10:18:13.432Z,62.23
2022-12-22T10:20:25.579Z,58.87
2022-12-22T10:22:33.492Z,58.90
2022-12-22T10:24:36.166Z,60.60
2022-12-22T10:26:39.781Z,61.93
2022-12-22T10:28:49.742Z,56.30
2022-12-22T10:31:11.421Z,56.97
2022-12-22T10:33:19.293Z,56.97
2022-12-22T10:35:21.497Z,57.33
2022-12-22T10:37:32.203Z,64.90
2022-12-22T10:39:36.910Z,61.53
2022-12-22T10:41:46.044Z,59.73
2022-12-22T10:43:51.866Z,65.43
2022-12-22T10:45:55.961Z,63.20
2022-12-22T10:47:58.508Z,64.27
2022-12-22T10:52:13.129Z,62.13
2022-12-22T10:54:38.339Z,60.80
2022-12-22T10:56:40.514Z,55.10
2022-12-22T10:59:01.583Z,55.17
2022-12-22T11:01:05.517Z,55.10
2022-12-22T11:03:12.407Z,56.90
2022-12-22T11:05:14.491Z,53.77
2022-12-22T11:07:16.808Z,55.67
2022-12-22T11:09:35.564Z,50.07
2022-12-22T11:11:53.507Z,46.07
2022-12-22T11:14:04.563Z,45.60
2022-12-22T11:16:12.859Z,46.40
2022-12-22T11:18:20.729Z,50.27
2022-12-22T11:20:32.027Z,85.83
2022-12-22T11:22:46.620Z,91.83
2022-12-22T11:25:18.931Z,104.13
2022-12-22T11:27:45.567Z,90.50
2022-12-22T11:30:04.717Z,67.73
2022-12-22T11:32:33.959Z,65.73
2022-12-22T11:34:41.764Z,79.03
2022-12-22T11:37:10.088Z,69.47
2022-12-22T11:39:15.608Z,64.73
2022-12-22T11:41:42.715Z,64.23
2022-12-22T11:44:06.586Z,62.10
2022-12-22T11:46:18.649Z,64.80
2022-12-22T11:48:32.429Z,66.67
2022-12-22T11:51:02.205Z,68.87
2022-12-22T11:53:45.853Z,66.50
2022-12-22T11:56:12.767Z,67.17
2022-12-22T11:58:43.673Z,63.83
2022-12-22T12:01:15.327Z,63.20
2022-12-22T12:03:23.107Z,61.03
2022-12-22T12:05:34.742Z,71.60
2022-12-22T12:07:53.447Z,66.00
2022-12-22T12:10:10.906Z,79.33
2022-12-22T12:12:51.850Z,75.33
2022-12-22T12:15:32.613Z,75.40
2022-12-22T12:18:15.653Z,76.60
2022-12-22T12:20:39.117Z,78.33
2022-12-22T12:23:15.475Z,78.70
2022-12-22T12:25:41.677Z,79.23
2022-12-22T12:28:12.402Z,81.33
2022-12-22T12:32:58.206Z,82.03
2022-12-22T12:35:32.873Z,82.37
2022-12-22T12:37:39.132Z,80.33
2022-12-22T12:40:09.627Z,88.90
2022-12-22T12:42:29.869Z,88.33
2022-12-22T12:44:34.992Z,89.07
2022-12-22T12:46:54.442Z,77.83
2022-12-22T12:48:56.685Z,77.43
2022-12-22T12:50:59.096Z,85.80
2022-12-22T12:53:10.562Z,92.13
2022-12-22T12:55:41.422Z,96.90
2022-12-22T12:57:51.679Z,122.30
2022-12-22T12:59:57.367Z,117.67
2022-12-22T13:02:00.583Z,108.03
2022-12-22T13:04:05.037Z,109.80
2022-12-22T13:06:11.226Z,108.20
2022-12-22T13:08:23.734Z,113.60
2022-12-22T13:10:26.658Z,130.87
2022-12-22T13:12:49.947Z,117.93
2022-12-22T13:14:59.168Z,105.67
2022-12-22T13:17:56.218Z,104.33
2022-12-22T13:20:05.435Z,93.67
2022-12-22T13:22:08.726Z,82.57
2022-12-22T13:24:31.475Z,87.10
2022-12-22T13:26:34.546Z,86.43
2022-12-22T13:28:39.718Z,90.13
2022-12-22T13:30:49.747Z,83.33
2022-12-22T13:32:53.094Z,85.70
2022-12-22T13:35:33.723Z,81.13
2022-12-22T13:37:43.697Z,109.93
2022-12-22T13:40:13.571Z,127.13
2022-12-22T13:42:16.868Z,123.33
2022-12-22T13:44:28.300Z,120.73
2022-12-22T13:46:33.153Z,109.77
2022-12-22T13:48:45.246Z,91.93
2022-12-22T13:50:54.263Z,82.57
2022-12-22T13:52:58.330Z,78.47
2022-12-22T13:55:01.426Z,76.73
2022-12-22T13:57:05.931Z,72.60
2022-12-22T13:59:38.308Z,71.37
2022-12-22T14:01:56.482Z,69.27
2022-12-22T14:04:07.954Z,69.67
2022-12-22T14:06:43.654Z,80.03
2022-12-22T14:08:45.856Z,81.27
2022-12-22T14:10:48.442Z,92.20
2022-12-22T14:12:50.877Z,73.73
2022-12-22T14:14:58.616Z,77.27
2022-12-22T14:17:01.108Z,82.07
2022-12-22T14:19:03.258Z,79.63
2022-12-22T14:21:06.184Z,88.40
2022-12-22T14:23:22.759Z,85.57
2022-12-22T14:25:32.902Z,91.13
2022-12-22T14:27:40.493Z,108.73
2022-12-22T14:29:43.653Z,110.53
2022-12-22T14:32:02.977Z,105.53
2022-12-22T14:34:08.255Z,105.50
2022-12-22T14:36:26.314Z,95.07
2022-12-22T14:38:28.589Z,94.73
2022-12-22T14:40:34.608Z,84.37
2022-12-22T14:42:45.706Z,96.37
2022-12-22T14:44:48.698Z,100.33
2022-12-22T14:47:12.924Z,105.63
2022-12-22T14:49:20.150Z,105.23
2022-12-22T14:51:22.617Z,89.87
2022-12-22T14:53:29.697Z,89.73
2022-12-22T14:55:36.772Z,92.47
2022-12-22T14:57:42.852Z,87.30
2022-12-22T15:00:04.007Z,83.37
2022-12-22T15:02:33.502Z,86.83
2022-12-22T15:04:39.104Z,95.50
2022-12-22T15:06:45.943Z,95.97
2022-12-22T15:08:48.192Z,92.17
2022-12-22T15:10:50.690Z,92.90
2022-12-22T15:13:00.222Z,99.50
2022-12-22T15:15:03.153Z,96.30
2022-12-22T15:17:07.724Z,83.37
2022-12-22T15:19:19.743Z,79.73
2022-12-22T15:21:23.092Z,74.03
2022-12-22T15:23:25.381Z,83.30
2022-12-22T15:25:27.579Z,85.57
2022-12-22T15:27:30.496Z,84.53
2022-12-22T15:29:33.176Z,85.43
2022-12-22T15:31:35.444Z,88.20
2022-12-22T15:33:37.892Z,91.97
2022-12-22T15:35:42.209Z,95.20
2022-12-22T15:37:44.473Z,97.27
2022-12-22T15:39:47.587Z,104.37
2022-12-22T15:41:50.412Z,105.50
2022-12-22T15:43:58.403Z,103.67
2022-12-22T15:46:02.452Z,106.13
2022-12-22T15:48:06.992Z,94.93
2022-12-22T15:50:15.815Z,89.07
2022-12-22T15:52:17.984Z,86.83
2022-12-22T15:54:20.654Z,83.90
2022-12-22T15:56:25.259Z,90.27
2022-12-22T15:58:35.663Z,83.97
2022-12-22T16:00:37.912Z,85.33
2022-12-22T16:02:40.567Z,85.33
2022-12-22T16:04:43.687Z,81.53
2022-12-22T16:06:47.953Z,74.13
2022-12-22T16:08:53.745Z,92.50
2022-12-22T16:10:56.623Z,101.20
2022-12-22T16:13:03.294Z,104.40
2022-12-22T16:15:08.673Z,99.33
2022-12-22T16:17:18.481Z,96.10
2022-12-22T16:19:20.538Z,92.63
2022-12-22T16:21:37.604Z,92.33
2022-12-22T16:23:45.587Z,88.77
2022-12-22T16:25:48.088Z,86.20
2022-12-22T16:27:54.633Z,98.63
2022-12-22T16:29:58.377Z,102.47
2022-12-22T16:32:24.773Z,105.00
2022-12-22T16:34:26.920Z,105.53
2022-12-22T16:36:28.916Z,94.27
2022-12-22T16:38:35.532Z,153.07
2022-12-22T16:40:46.879Z,196.97
2022-12-22T16:45:26.018Z,202.23
2022-12-22T16:47:36.246Z,157.30
2022-12-22T16:49:38.846Z,143.60
2022-12-22T16:51:53.177Z,133.43
2022-12-22T16:53:55.746Z,121.93
2022-12-22T16:56:02.850Z,124.57
2022-12-22T16:58:12.932Z,134.43
2022-12-22T17:00:22.750Z,195.63
2022-12-22T17:02:31.009Z,178.60
2022-12-22T17:04:34.047Z,164.67
2022-12-22T17:06:37.343Z,140.47
2022-12-22T17:08:42.135Z,143.67
2022-12-22T17:10:44.474Z,135.30
2022-12-22T17:13:18.161Z,127.77
2022-12-22T17:15:22.726Z,128.13
2022-12-22T17:17:31.129Z,126.57
2022-12-22T17:19:36.548Z,128.83
2022-12-22T17:21:38.830Z,109.30
2022-12-22T17:23:50.350Z,91.00
2022-12-22T17:25:52.942Z,94.97
2022-12-22T17:28:01.361Z,96.40
2022-12-22T17:30:04.152Z,104.57
2022-12-22T17:32:06.270Z,92.83
2022-12-22T17:34:19.883Z,92.30
2022-12-22T17:36:36.190Z,89.00
2022-12-22T17:38:38.420Z,110.93
2022-12-22T17:40:41.088Z,106.03
2022-12-22T17:42:43.896Z,120.83
2022-12-22T17:44:49.072Z,112.93
2022-12-22T17:46:53.198Z,138.67
2022-12-22T17:48:55.700Z,148.00
2022-12-22T17:50:57.965Z,148.70
2022-12-22T17:53:01.580Z,138.50
2022-12-22T17:55:05.134Z,113.77
2022-12-22T17:57:16.774Z,93.77
2022-12-22T17:59:21.820Z,98.90
2022-12-22T18:01:29.562Z,96.03
2022-12-22T18:03:31.907Z,99.23
2022-12-22T18:05:41.223Z,112.23
2022-12-22T18:07:45.314Z,117.27
2022-12-22T18:09:49.246Z,109.93
2022-12-22T18:11:51.748Z,88.17
2022-12-22T18:13:57.466Z,94.40
2022-12-22T18:15:59.762Z,85.50
2022-12-22T18:18:10.467Z,88.87
2022-12-22T18:20:24.185Z,95.63
2022-12-22T18:22:41.691Z,96.20
2022-12-22T18:24:54.817Z,92.83
2022-12-22T18:26:57.053Z,95.93
2022-12-22T18:28:59.997Z,93.83
2022-12-22T18:31:02.458Z,94.00
2022-12-22T18:33:04.786Z,86.77
2022-12-22T18:35:07.729Z,84.00
2022-12-22T18:37:16.446Z,86.10
2022-12-22T18:39:22.529Z,86.43
2022-12-22T18:41:26.830Z,77.20
2022-12-22T18:43:29.209Z,78.20
2022-12-22T18:45:32.060Z,78.00
2022-12-22T18:47:36.856Z,76.80
2022-12-22T18:49:39.233Z,87.80
2022-12-22T18:51:44.201Z,78.60
2022-12-22T18:53:47.783Z,84.70
2022-12-22T18:55:53.548Z,81.83
2022-12-22T18:57:57.307Z,78.57
2022-12-22T18:59:59.363Z,88.10
2022-12-22T19:02:28.868Z,77.83
2022-12-22T19:04:31.079Z,95.20
2022-12-22T19:06:33.456Z,98.83
2022-12-22T19:08:41.869Z,96.13
2022-12-22T19:10:52.673Z,96.37
2022-12-22T19:12:56.969Z,106.67
2022-12-22T19:15:05.287Z,102.60
2022-12-22T19:17:21.470Z,112.30
2022-12-22T19:19:24.348Z,111.50
2022-12-22T19:21:26.435Z,117.73
2022-12-22T19:23:28.758Z,108.87
2022-12-22T19:25:32.745Z,110.47
2022-12-22T19:27:35.049Z,110.33
2022-12-22T19:29:39.378Z,118.80
2022-12-22T19:32:06.841Z,121.47
2022-12-22T19:34:16.867Z,114.73
2022-12-22T19:36:22.795Z,120.93
2022-12-22T19:38:26.763Z,115.73
2022-12-22T19:40:31.501Z,110.30
2022-12-22T19:42:35.469Z,109.73
2022-12-22T19:44:37.713Z,116.60
2022-12-22T19:46:40.211Z,110.07
2022-12-22T19:48:42.590Z,106.23
2022-12-22T19:50:45.567Z,101.60
2022-12-22T19:52:47.960Z,95.37
2022-12-22T19:54:50.338Z,89.10
2022-12-22T19:56:57.830Z,88.70
2022-12-22T19:59:01.746Z,82.70
2022-12-22T20:01:11.718Z,83.03
2022-12-22T20:03:25.304Z,88.07
2022-12-22T20:05:31.652Z,84.77
2022-12-22T20:07:37.286Z,86.23
2022-12-22T20:09:39.572Z,89.93
2022-12-22T20:11:42.750Z,91.60
2022-12-22T20:13:45.774Z,97.27
2022-12-22T20:15:48.600Z,112.20
2022-12-22T20:17:52.849Z,102.73
2022-12-22T20:19:54.970Z,107.80
2022-12-22T20:21:57.104Z,104.80
2022-12-22T20:24:01.435Z,114.43
2022-12-22T20:26:12.388Z,120.60
2022-12-22T20:28:20.969Z,123.63
2022-12-22T20:30:30.631Z,127.40
2022-12-22T20:32:33.035Z,125.00
2022-12-22T20:34:35.362Z,138.67
2022-12-22T20:36:37.513Z,120.10
2022-12-22T20:38:41.958Z,103.10
2022-12-22T20:40:45.055Z,97.30
2022-12-22T20:42:47.497Z,99.90
2022-12-22T20:45:02.747Z,91.73
2022-12-22T20:47:14.902Z,98.13
2022-12-22T20:49:22.862Z,94.00
2022-12-22T20:51:31.638Z,88.17
2022-12-22T20:53:34.441Z,88.73
2022-12-22T20:55:36.688Z,86.77
2022-12-22T20:57:41.911Z,85.73
2022-12-22T20:59:49.226Z,87.47
2022-12-22T21:01:56.207Z,87.27
2022-12-22T21:03:58.777Z,94.17
2022-12-22T21:06:00.904Z,90.70
2022-12-22T21:08:03.118Z,94.17
2022-12-22T21:10:06.022Z,100.30
2022-12-22T21:12:08.527Z,97.63
2022-12-22T21:14:11.566Z,98.27
2022-12-22T21:16:18.583Z,106.10
2022-12-22T21:18:23.391Z,107.60
2022-12-22T21:20:31.059Z,106.60
2022-12-22T21:22:33.073Z,104.07
2022-12-22T21:24:35.704Z,104.03
2022-12-22T21:26:43.128Z,114.27
2022-12-22T21:28:47.037Z,108.03
2022-12-22T21:30:49.817Z,108.27
2022-12-22T21:32:53.028Z,109.37
2022-12-22T21:34:55.212Z,109.90
2022-12-22T21:37:01.757Z,118.00
2022-12-22T21:39:28.744Z,154.60
2022-12-22T21:41:49.358Z,148.43
2022-12-22T21:43:51.578Z,143.43
2022-12-22T21:45:53.970Z,136.77
2022-12-22T21:47:59.649Z,127.37
2022-12-22T21:50:01.985Z,126.87
2022-12-22T21:52:04.356Z,129.27
2022-12-22T21:54:06.872Z,131.63
2022-12-22T21:56:19.413Z,143.77
2022-12-22T21:58:22.184Z,158.10
2022-12-22T22:00:26.168Z,152.40
2022-12-22T22:02:37.624Z,149.03
2022-12-22T22:04:40.272Z,146.57
2022-12-22T22:06:42.954Z,157.40
2022-12-22T22:08:45.488Z,158.10
2022-12-22T22:10:48.123Z,144.27
2022-12-22T22:12:50.427Z,127.13
2022-12-22T22:14:52.573Z,121.90
2022-12-22T22:16:55.109Z,120.13
2022-12-22T22:18:57.650Z,124.27
2022-12-22T22:20:59.994Z,131.50
2022-12-22T22:23:02.248Z,132.40
2022-12-22T22:25:05.306Z,123.63
2022-12-22T22:27:07.604Z,125.30
2022-12-22T22:29:09.635Z,119.80
2022-12-22T22:31:12.037Z,135.47
2022-12-22T22:33:14.030Z,121.57
2022-12-22T22:35:16.602Z,123.33
2022-12-22T22:37:19.696Z,121.67
2022-12-22T22:39:23.370Z,118.70
2022-12-22T22:41:26.411Z,114.80
2022-12-22T22:43:28.799Z,111.03
2022-12-22T22:45:31.089Z,110.73
2022-12-22T22:47:33.205Z,130.53
2022-12-22T22:49:35.687Z,127.87
2022-12-22T22:51:37.905Z,132.17
2022-12-22T22:53:39.982Z,124.73
2022-12-22T22:55:42.637Z,130.50
2022-12-22T22:57:45.193Z,143.20
2022-12-22T22:59:47.324Z,157.07
2022-12-22T23:01:49.685Z,162.10
2022-12-22T23:03:52.369Z,163.97
2022-12-22T23:06:05.383Z,160.60
2022-12-22T23:08:07.810Z,144.57
2022-12-22T23:10:10.595Z,133.87
2022-12-22T23:12:13.321Z,132.57
2022-12-22T23:14:15.864Z,137.03
2022-12-22T23:16:21.806Z,150.37
2022-12-22T23:18:24.521Z,147.33
2022-12-22T23:20:29.303Z,161.80
2022-12-22T23:22:31.371Z,152.53
2022-12-22T23:24:33.640Z,136.67
2022-12-22T23:26:36.269Z,157.20
2022-12-22T23:28:39.052Z,165.67
2022-12-22T23:30:42.696Z,156.73
2022-12-22T23:32:45.015Z,136.03
2022-12-22T23:34:48.159Z,141.73
2022-12-22T23:36:50.239Z,137.50
2022-12-22T23:38:52.394Z,123.43
2022-12-22T23:41:05.844Z,130.63
2022-12-22T23:43:11.264Z,125.20
2022-12-22T23:45:13.326Z,119.63
2022-12-22T23:47:15.803Z,125.47
2022-12-22T23:49:18.101Z,120.43
2022-12-22T23:51:21.493Z,128.43
2022-12-22T23:53:23.583Z,122.27
2022-12-22T23:55:26.277Z,126.07
2022-12-22T23:57:28.269Z,116.13
2022-12-22T23:59:30.552Z,119.93
